sensor_id;sensor_type;location;lat;lon;timestamp;P1;durP1;ratioP1;P2;durP2;ratioP2
63008;SDS011;49099;28.428;-16.488;2022-12-29T00:00:55;17.80;;;3.55;;
63008;SDS011;49099;28.428;-16.488;2022-12-29T00:03:22;23.15;;;3.80;;
63008;SDS011;49099;28.428;-16.488;2022-12-29T00:05:56;16.58;;;3.63;;
63008;SDS011;49099;28.428;-16.488;2022-12-29T00:08:24;24.77;;;3.67;;
63008;SDS011;49099;28.428;-16.488;2022-12-29T00:11:07;20.30;;;4.28;;
63008;SDS011;49099;28.428;-16.488;2022-12-29T00:13:41;16.58;;;3.25;;
63008;SDS011;49099;28.428;-16.488;2022-12-29T00:16:27;17.15;;;3.30;;
63008;SDS011;49099;28.428;-16.488;2022-12-29T00:18:55;19.42;;;3.78;;
63008;SDS011;49099;28.428;-16.488;2022-12-29T00:21:23;17.00;;;3.05;;
63008;SDS011;49099;28.428;-16.488;2022-12-29T00:24:11;15.77;;;2.97;;
63008;SDS011;49099;28.428;-16.488;2022-12-29T00:29:49;18.85;;;2.60;;
63008;SDS011;49099;28.428;-16.488;2022-12-29T00:32:52;21.65;;;3.95;;
63008;SDS011;49099;28.428;-16.488;2022-12-29T00:35:53;17.13;;;2.70;;
63008;SDS011;49099;28.428;-16.488;2022-12-29T00:38:24;20.33;;;2.80;;
63008;SDS011;49099;28.428;-16.488;2022-12-29T00:41:10;15.88;;;3.50;;
63008;SDS011;49099;28.428;-16.488;2022-12-29T00:43:56;15.52;;;3.25;;
63008;SDS011;49099;28.428;-16.488;2022-12-29T00:46:33;14.55;;;2.97;;
63008;SDS011;49099;28.428;-16.488;2022-12-29T00:49:01;17.67;;;3.15;;
63008;SDS011;49099;28.428;-16.488;2022-12-29T00:51:47;20.45;;;2.90;;
63008;SDS011;49099;28.428;-16.488;2022-12-29T00:54:15;13.38;;;2.80;;
63008;SDS011;49099;28.428;-16.488;2022-12-29T00:56:45;17.80;;;3.10;;
63008;SDS011;49099;28.428;-16.488;2022-12-29T00:59:17;18.33;;;3.15;;
63008;SDS011;49099;28.428;-16.488;2022-12-29T01:01:45;17.35;;;3.03;;
63008;SDS011;49099;28.428;-16.488;2022-12-29T01:04:13;14.80;;;3.10;;
63008;SDS011;49099;28.428;-16.488;2022-12-29T01:06:40;14.43;;;3.45;;
63008;SDS011;49099;28.428;-16.488;2022-12-29T01:09:09;13.43;;;2.60;;
63008;SDS011;49099;28.428;-16.488;2022-12-29T01:11:55;17.08;;;2.95;;
63008;SDS011;49099;28.428;-16.488;2022-12-29T01:14:22;16.02;;;2.88;;
63008;SDS011;49099;28.428;-16.488;2022-12-29T01:16:49;16.15;;;2.95;;
63008;SDS011;49099;28.428;-16.488;2022-12-29T01:19:17;19.85;;;2.80;;
63008;SDS011;49099;28.428;-16.488;2022-12-29T01:21:46;15.40;;;3.38;;
63008;SDS011;49099;28.428;-16.488;2022-12-29T01:24:14;18.70;;;3.05;;
63008;SDS011;49099;28.428;-16.488;2022-12-29T01:26:43;11.70;;;2.60;;
63008;SDS011;49099;28.428;-16.488;2022-12-29T01:29:10;20.48;;;3.10;;
63008;SDS011;49099;28.428;-16.488;2022-12-29T01:31:38;14.80;;;2.92;;
63008;SDS011;49099;28.428;-16.488;2022-12-29T01:34:05;11.98;;;2.60;;
63008;SDS011;49099;28.428;-16.488;2022-12-29T01:36:33;13.15;;;2.75;;
63008;SDS011;49099;28.428;-16.488;2022-12-29T01:39:00;13.40;;;2.90;;
63008;SDS011;49099;28.428;-16.488;2022-12-29T01:41:27;10.32;;;2.53;;
63008;SDS011;49099;28.428;-16.488;2022-12-29T01:43:58;13.15;;;2.92;;
63008;SDS011;49099;28.428;-16.488;2022-12-29T01:49:13;14.23;;;2.72;;
63008;SDS011;49099;28.428;-16.488;2022-12-29T01:51:51;15.45;;;2.50;;
63008;SDS011;49099;28.428;-16.488;2022-12-29T01:54:21;13.85;;;2.45;;
63008;SDS011;49099;28.428;-16.488;2022-12-29T01:56:52;16.52;;;2.72;;
63008;SDS011;49099;28.428;-16.488;2022-12-29T01:59:22;14.07;;;2.50;;
63008;SDS011;49099;28.428;-16.488;2022-12-29T02:01:54;9.00;;;2.47;;
63008;SDS011;49099;28.428;-16.488;2022-12-29T02:04:22;14.27;;;2.55;;
63008;SDS011;49099;28.428;-16.488;2022-12-29T02:06:53;17.48;;;2.72;;
63008;SDS011;49099;28.428;-16.488;2022-12-29T02:09:23;13.82;;;2.42;;
63008;SDS011;49099;28.428;-16.488;2022-12-29T02:11:51;17.92;;;2.95;;
63008;SDS011;49099;28.428;-16.488;2022-12-29T02:14:18;12.48;;;2.25;;
63008;SDS011;49099;28.428;-16.488;2022-12-29T02:22:18;16.30;;;2.60;;
63008;SDS011;49099;28.428;-16.488;2022-12-29T02:28:23;15.60;;;2.72;;
63008;SDS011;49099;28.428;-16.488;2022-12-29T02:36:31;19.17;;;2.83;;
63008;SDS011;49099;28.428;-16.488;2022-12-29T02:45:05;16.77;;;3.60;;
63008;SDS011;49099;28.428;-16.488;2022-12-29T02:47:41;20.85;;;3.13;;
63008;SDS011;49099;28.428;-16.488;2022-12-29T02:50:14;19.20;;;2.80;;
63008;SDS011;49099;28.428;-16.488;2022-12-29T02:52:54;17.15;;;2.60;;
63008;SDS011;49099;28.428;-16.488;2022-12-29T02:55:25;17.55;;;2.63;;
63008;SDS011;49099;28.428;-16.488;2022-12-29T03:07:13;22.20;;;2.63;;
63008;SDS011;49099;28.428;-16.488;2022-12-29T03:12:18;22.25;;;3.03;;
63008;SDS011;49099;28.428;-16.488;2022-12-29T03:14:54;18.23;;;3.47;;
63008;SDS011;49099;28.428;-16.488;2022-12-29T03:20:39;22.45;;;3.30;;
63008;SDS011;49099;28.428;-16.488;2022-12-29T03:23:16;21.42;;;2.92;;
63008;SDS011;49099;28.428;-16.488;2022-12-29T03:25:46;20.98;;;3.33;;
63008;SDS011;49099;28.428;-16.488;2022-12-29T03:28:21;18.63;;;2.97;;
63008;SDS011;49099;28.428;-16.488;2022-12-29T03:30:51;16.42;;;3.00;;
63008;SDS011;49099;28.428;-16.488;2022-12-29T03:33:21;22.45;;;3.08;;
63008;SDS011;49099;28.428;-16.488;2022-12-29T03:35:50;19.40;;;2.83;;
63008;SDS011;49099;28.428;-16.488;2022-12-29T03:38:23;18.58;;;3.05;;
63008;SDS011;49099;28.428;-16.488;2022-12-29T03:40:58;20.88;;;3.30;;
63008;SDS011;49099;28.428;-16.488;2022-12-29T03:43:27;17.33;;;3.20;;
63008;SDS011;49099;28.428;-16.488;2022-12-29T03:45:55;20.10;;;2.95;;
63008;SDS011;49099;28.428;-16.488;2022-12-29T03:48:22;17.77;;;2.80;;
63008;SDS011;49099;28.428;-16.488;2022-12-29T03:50:49;19.17;;;3.38;;
63008;SDS011;49099;28.428;-16.488;2022-12-29T03:53:16;16.92;;;3.20;;
63008;SDS011;49099;28.428;-16.488;2022-12-29T03:55:44;16.60;;;3.15;;
63008;SDS011;49099;28.428;-16.488;2022-12-29T03:58:11;18.95;;;2.95;;
63008;SDS011;49099;28.428;-16.488;2022-12-29T04:00:38;18.63;;;2.90;;
63008;SDS011;49099;28.428;-16.488;2022-12-29T04:03:05;19.35;;;3.00;;
63008;SDS011;49099;28.428;-16.488;2022-12-29T04:05:32;16.92;;;3.20;;
63008;SDS011;49099;28.428;-16.488;2022-12-29T04:08:01;15.18;;;2.88;;
63008;SDS011;49099;28.428;-16.488;2022-12-29T04:10:28;22.35;;;3.10;;
63008;SDS011;49099;28.428;-16.488;2022-12-29T04:12:55;14.85;;;2.60;;
63008;SDS011;49099;28.428;-16.488;2022-12-29T04:15:22;17.70;;;2.88;;
63008;SDS011;49099;28.428;-16.488;2022-12-29T04:17:50;27.25;;;4.32;;
63008;SDS011;49099;28.428;-16.488;2022-12-29T04:20:17;26.38;;;4.20;;
63008;SDS011;49099;28.428;-16.488;2022-12-29T04:23:04;24.85;;;3.53;;
63008;SDS011;49099;28.428;-16.488;2022-12-29T04:25:33;20.13;;;3.53;;
63008;SDS011;49099;28.428;-16.488;2022-12-29T04:28:00;23.17;;;3.47;;
63008;SDS011;49099;28.428;-16.488;2022-12-29T04:30:27;17.85;;;3.38;;
63008;SDS011;49099;28.428;-16.488;2022-12-29T04:32:54;17.92;;;3.00;;
63008;SDS011;49099;28.428;-16.488;2022-12-29T04:35:21;22.55;;;3.60;;
63008;SDS011;49099;28.428;-16.488;2022-12-29T04:37:49;18.23;;;3.25;;
63008;SDS011;49099;28.428;-16.488;2022-12-29T04:40:16;18.98;;;3.50;;
63008;SDS011;49099;28.428;-16.488;2022-12-29T04:42:43;18.27;;;3.50;;
63008;SDS011;49099;28.428;-16.488;2022-12-29T04:45:10;19.23;;;3.65;;
63008;SDS011;49099;28.428;-16.488;2022-12-29T04:47:37;27.85;;;3.80;;
63008;SDS011;49099;28.428;-16.488;2022-12-29T04:50:05;32.47;;;4.63;;
63008;SDS011;49099;28.428;-16.488;2022-12-29T04:52:32;33.17;;;4.90;;
63008;SDS011;49099;28.428;-16.488;2022-12-29T04:55:00;21.38;;;4.10;;
63008;SDS011;49099;28.428;-16.488;2022-12-29T04:57:27;29.73;;;4.30;;
63008;SDS011;49099;28.428;-16.488;2022-12-29T04:59:54;22.65;;;4.13;;
63008;SDS011;49099;28.428;-16.488;2022-12-29T05:02:21;26.20;;;4.25;;
63008;SDS011;49099;28.428;-16.488;2022-12-29T05:04:48;22.77;;;3.80;;
63008;SDS011;49099;28.428;-16.488;2022-12-29T05:07:15;21.55;;;3.85;;
63008;SDS011;49099;28.428;-16.488;2022-12-29T05:09:43;23.88;;;3.58;;
63008;SDS011;49099;28.428;-16.488;2022-12-29T05:12:10;23.25;;;3.80;;
63008;SDS011;49099;28.428;-16.488;2022-12-29T05:14:37;20.30;;;3.47;;
63008;SDS011;49099;28.428;-16.488;2022-12-29T05:17:04;20.05;;;3.45;;
63008;SDS011;49099;28.428;-16.488;2022-12-29T05:19:32;19.67;;;3.40;;
63008;SDS011;49099;28.428;-16.488;2022-12-29T05:22:00;18.02;;;3.40;;
63008;SDS011;49099;28.428;-16.488;2022-12-29T05:24:27;22.83;;;3.20;;
63008;SDS011;49099;28.428;-16.488;2022-12-29T05:26:54;17.58;;;3.42;;
63008;SDS011;49099;28.428;-16.488;2022-12-29T05:29:21;21.98;;;3.90;;
63008;SDS011;49099;28.428;-16.488;2022-12-29T05:31:48;21.02;;;2.97;;
63008;SDS011;49099;28.428;-16.488;2022-12-29T05:34:15;21.40;;;3.22;;
63008;SDS011;49099;28.428;-16.488;2022-12-29T05:36:43;13.75;;;3.13;;
63008;SDS011;49099;28.428;-16.488;2022-12-29T05:39:10;20.20;;;3.10;;
63008;SDS011;49099;28.428;-16.488;2022-12-29T05:41:37;19.00;;;3.30;;
63008;SDS011;49099;28.428;-16.488;2022-12-29T05:44:04;22.48;;;3.28;;
63008;SDS011;49099;28.428;-16.488;2022-12-29T05:46:32;18.00;;;2.90;;
63008;SDS011;49099;28.428;-16.488;2022-12-29T05:48:59;19.17;;;2.72;;
63008;SDS011;49099;28.428;-16.488;2022-12-29T05:51:26;15.15;;;3.05;;
63008;SDS011;49099;28.428;-16.488;2022-12-29T05:53:53;18.95;;;3.35;;
63008;SDS011;49099;28.428;-16.488;2022-12-29T05:56:20;17.95;;;3.00;;
63008;SDS011;49099;28.428;-16.488;2022-12-29T05:58:47;15.45;;;2.72;;
63008;SDS011;49099;28.428;-16.488;2022-12-29T06:01:14;17.70;;;2.88;;
63008;SDS011;49099;28.428;-16.488;2022-12-29T06:03:42;14.95;;;3.10;;
63008;SDS011;49099;28.428;-16.488;2022-12-29T06:06:13;23.00;;;3.30;;
63008;SDS011;49099;28.428;-16.488;2022-12-29T06:08:41;16.63;;;3.42;;
63008;SDS011;49099;28.428;-16.488;2022-12-29T06:11:08;16.95;;;2.85;;
63008;SDS011;49099;28.428;-16.488;2022-12-29T06:13:36;15.43;;;3.17;;
63008;SDS011;49099;28.428;-16.488;2022-12-29T06:16:03;15.80;;;3.08;;
63008;SDS011;49099;28.428;-16.488;2022-12-29T06:18:31;19.35;;;3.53;;
63008;SDS011;49099;28.428;-16.488;2022-12-29T06:21:02;14.55;;;2.75;;
63008;SDS011;49099;28.428;-16.488;2022-12-29T06:23:30;15.48;;;2.97;;
63008;SDS011;49099;28.428;-16.488;2022-12-29T06:25:57;13.90;;;3.55;;
63008;SDS011;49099;28.428;-16.488;2022-12-29T06:28:24;17.85;;;3.25;;
63008;SDS011;49099;28.428;-16.488;2022-12-29T06:30:51;18.02;;;2.80;;
63008;SDS011;49099;28.428;-16.488;2022-12-29T06:33:18;14.25;;;3.35;;
63008;SDS011;49099;28.428;-16.488;2022-12-29T06:35:46;15.90;;;2.70;;
63008;SDS011;49099;28.428;-16.488;2022-12-29T06:38:13;21.65;;;3.58;;
63008;SDS011;49099;28.428;-16.488;2022-12-29T06:40:41;18.55;;;2.83;;
63008;SDS011;49099;28.428;-16.488;2022-12-29T06:43:11;18.83;;;3.17;;
63008;SDS011;49099;28.428;-16.488;2022-12-29T06:45:39;13.40;;;2.60;;
63008;SDS011;49099;28.428;-16.488;2022-12-29T06:48:06;13.93;;;2.60;;
63008;SDS011;49099;28.428;-16.488;2022-12-29T06:50:34;18.38;;;3.45;;
63008;SDS011;49099;28.428;-16.488;2022-12-29T06:53:01;17.38;;;3.30;;
63008;SDS011;49099;28.428;-16.488;2022-12-29T06:55:28;15.82;;;2.70;;
63008;SDS011;49099;28.428;-16.488;2022-12-29T06:57:56;14.52;;;2.97;;
63008;SDS011;49099;28.428;-16.488;2022-12-29T07:00:24;16.60;;;3.30;;
63008;SDS011;49099;28.428;-16.488;2022-12-29T07:02:52;14.73;;;4.00;;
63008;SDS011;49099;28.428;-16.488;2022-12-29T07:05:22;14.80;;;3.13;;
63008;SDS011;49099;28.428;-16.488;2022-12-29T07:07:49;17.17;;;3.30;;
63008;SDS011;49099;28.428;-16.488;2022-12-29T07:10:16;24.95;;;3.10;;
63008;SDS011;49099;28.428;-16.488;2022-12-29T07:12:43;17.85;;;3.75;;
63008;SDS011;49099;28.428;-16.488;2022-12-29T07:15:10;22.92;;;3.65;;
63008;SDS011;49099;28.428;-16.488;2022-12-29T07:17:37;19.13;;;3.60;;
63008;SDS011;49099;28.428;-16.488;2022-12-29T07:20:05;26.20;;;3.63;;
63008;SDS011;49099;28.428;-16.488;2022-12-29T07:22:33;19.77;;;3.30;;
63008;SDS011;49099;28.428;-16.488;2022-12-29T07:25:00;18.27;;;3.30;;
63008;SDS011;49099;28.428;-16.488;2022-12-29T07:27:27;18.00;;;3.22;;
63008;SDS011;49099;28.428;-16.488;2022-12-29T07:29:54;18.80;;;3.40;;
63008;SDS011;49099;28.428;-16.488;2022-12-29T07:32:21;22.13;;;3.17;;
63008;SDS011;49099;28.428;-16.488;2022-12-29T07:34:48;17.65;;;3.13;;
63008;SDS011;49099;28.428;-16.488;2022-12-29T07:37:15;16.17;;;2.72;;
63008;SDS011;49099;28.428;-16.488;2022-12-29T07:39:43;14.30;;;3.03;;
63008;SDS011;49099;28.428;-16.488;2022-12-29T07:42:10;16.75;;;3.00;;
63008;SDS011;49099;28.428;-16.488;2022-12-29T07:44:37;20.15;;;3.20;;
63008;SDS011;49099;28.428;-16.488;2022-12-29T07:47:05;21.75;;;3.50;;
63008;SDS011;49099;28.428;-16.488;2022-12-29T07:49:32;16.02;;;3.20;;
63008;SDS011;49099;28.428;-16.488;2022-12-29T07:51:59;16.15;;;3.03;;
63008;SDS011;49099;28.428;-16.488;2022-12-29T07:54:27;15.77;;;3.42;;
63008;SDS011;49099;28.428;-16.488;2022-12-29T07:56:54;14.85;;;3.13;;
63008;SDS011;49099;28.428;-16.488;2022-12-29T07:59:21;18.30;;;2.70;;
63008;SDS011;49099;28.428;-16.488;2022-12-29T08:01:49;17.42;;;2.58;;
63008;SDS011;49099;28.428;-16.488;2022-12-29T08:04:16;10.18;;;2.60;;
63008;SDS011;49099;28.428;-16.488;2022-12-29T08:06:44;11.52;;;2.90;;
63008;SDS011;49099;28.428;-16.488;2022-12-29T08:09:12;13.02;;;2.90;;
63008;SDS011;49099;28.428;-16.488;2022-12-29T08:11:47;15.27;;;3.00;;
63008;SDS011;49099;28.428;-16.488;2022-12-29T08:14:15;16.50;;;3.17;;
63008;SDS011;49099;28.428;-16.488;2022-12-29T08:16:42;17.08;;;3.58;;
63008;SDS011;49099;28.428;-16.488;2022-12-29T08:19:12;19.00;;;3.00;;
63008;SDS011;49099;28.428;-16.488;2022-12-29T08:21:39;14.27;;;2.95;;
63008;SDS011;49099;28.428;-16.488;2022-12-29T08:24:07;17.15;;;3.35;;
63008;SDS011;49099;28.428;-16.488;2022-12-29T08:26:35;19.17;;;3.47;;
63008;SDS011;49099;28.428;-16.488;2022-12-29T08:29:02;17.85;;;3.53;;
63008;SDS011;49099;28.428;-16.488;2022-12-29T08:31:29;16.02;;;3.55;;
63008;SDS011;49099;28.428;-16.488;2022-12-29T08:33:56;19.25;;;3.08;;
63008;SDS011;49099;28.428;-16.488;2022-12-29T08:36:23;13.45;;;3.00;;
63008;SDS011;49099;28.428;-16.488;2022-12-29T08:38:51;26.35;;;3.15;;
63008;SDS011;49099;28.428;-16.488;2022-12-29T08:41:18;8.57;;;2.45;;
63008;SDS011;49099;28.428;-16.488;2022-12-29T08:43:49;12.55;;;2.83;;
63008;SDS011;49099;28.428;-16.488;2022-12-29T08:46:16;13.98;;;3.20;;
63008;SDS011;49099;28.428;-16.488;2022-12-29T08:48:44;19.70;;;2.72;;
63008;SDS011;49099;28.428;-16.488;2022-12-29T08:51:11;17.27;;;3.03;;
63008;SDS011;49099;28.428;-16.488;2022-12-29T08:53:39;12.80;;;2.38;;
63008;SDS011;49099;28.428;-16.488;2022-12-29T08:56:08;20.42;;;3.60;;
63008;SDS011;49099;28.428;-16.488;2022-12-29T08:58:35;15.70;;;2.90;;
63008;SDS011;49099;28.428;-16.488;2022-12-29T09:01:02;22.35;;;3.45;;
63008;SDS011;49099;28.428;-16.488;2022-12-29T09:03:30;16.85;;;3.67;;
63008;SDS011;49099;28.428;-16.488;2022-12-29T09:06:17;17.80;;;3.10;;
63008;SDS011;49099;28.428;-16.488;2022-12-29T09:08:44;16.10;;;2.97;;
63008;SDS011;49099;28.428;-16.488;2022-12-29T09:11:13;13.10;;;3.28;;
63008;SDS011;49099;28.428;-16.488;2022-12-29T09:13:41;14.32;;;2.72;;
63008;SDS011;49099;28.428;-16.488;2022-12-29T09:16:08;17.38;;;2.92;;
63008;SDS011;49099;28.428;-16.488;2022-12-29T09:18:36;22.50;;;3.80;;
63008;SDS011;49099;28.428;-16.488;2022-12-29T09:21:04;16.02;;;3.10;;
63008;SDS011;49099;28.428;-16.488;2022-12-29T09:23:32;18.73;;;3.20;;
63008;SDS011;49099;28.428;-16.488;2022-12-29T09:26:00;19.02;;;3.65;;
63008;SDS011;49099;28.428;-16.488;2022-12-29T09:28:28;15.30;;;3.30;;
63008;SDS011;49099;28.428;-16.488;2022-12-29T09:30:56;19.88;;;3.53;;
63008;SDS011;49099;28.428;-16.488;2022-12-29T09:33:24;21.17;;;4.03;;
63008;SDS011;49099;28.428;-16.488;2022-12-29T09:35:55;13.05;;;3.00;;
63008;SDS011;49099;28.428;-16.488;2022-12-29T09:38:24;14.40;;;2.70;;
63008;SDS011;49099;28.428;-16.488;2022-12-29T09:40:54;15.93;;;2.70;;
63008;SDS011;49099;28.428;-16.488;2022-12-29T09:44:06;13.38;;;2.78;;
63008;SDS011;49099;28.428;-16.488;2022-12-29T09:46:42;11.80;;;2.63;;
63008;SDS011;49099;28.428;-16.488;2022-12-29T09:52:10;13.10;;;3.13;;
63008;SDS011;49099;28.428;-16.488;2022-12-29T09:58:13;12.00;;;2.30;;
63008;SDS011;49099;28.428;-16.488;2022-12-29T10:03:50;13.07;;;3.03;;
63008;SDS011;49099;28.428;-16.488;2022-12-29T10:09:42;23.65;;;3.50;;
63008;SDS011;49099;28.428;-16.488;2022-12-29T10:12:29;20.92;;;3.42;;
63008;SDS011;49099;28.428;-16.488;2022-12-29T10:21:08;18.42;;;3.33;;
63008;SDS011;49099;28.428;-16.488;2022-12-29T10:23:45;17.77;;;3.50;;
63008;SDS011;49099;28.428;-16.488;2022-12-29T10:26:37;14.38;;;3.25;;
63008;SDS011;49099;28.428;-16.488;2022-12-29T10:31:59;16.83;;;3.72;;
63008;SDS011;49099;28.428;-16.488;2022-12-29T10:39:59;17.73;;;3.67;;
63008;SDS011;49099;28.428;-16.488;2022-12-29T10:42:43;25.85;;;4.63;;
63008;SDS011;49099;28.428;-16.488;2022-12-29T10:45:14;18.15;;;3.40;;
63008;SDS011;49099;28.428;-16.488;2022-12-29T10:50:57;22.13;;;3.83;;
63008;SDS011;49099;28.428;-16.488;2022-12-29T10:53:36;18.52;;;4.20;;
63008;SDS011;49099;28.428;-16.488;2022-12-29T10:56:09;18.15;;;3.95;;
63008;SDS011;49099;28.428;-16.488;2022-12-29T10:59:23;20.23;;;3.88;;
63008;SDS011;49099;28.428;-16.488;2022-12-29T11:07:17;18.65;;;3.72;;
63008;SDS011;49099;28.428;-16.488;2022-12-29T11:09:52;17.33;;;3.63;;
63008;SDS011;49099;28.428;-16.488;2022-12-29T11:15:05;15.93;;;3.22;;
63008;SDS011;49099;28.428;-16.488;2022-12-29T11:17:52;19.20;;;3.60;;
63008;SDS011;49099;28.428;-16.488;2022-12-29T11:23:01;39.22;;;6.65;;
63008;SDS011;49099;28.428;-16.488;2022-12-29T11:25:29;33.95;;;6.40;;
63008;SDS011;49099;28.428;-16.488;2022-12-29T11:27:59;28.98;;;6.60;;
63008;SDS011;49099;28.428;-16.488;2022-12-29T11:30:30;20.00;;;4.93;;
63008;SDS011;49099;28.428;-16.488;2022-12-29T11:32:58;25.98;;;4.90;;
63008;SDS011;49099;28.428;-16.488;2022-12-29T11:35:41;15.45;;;4.07;;
63008;SDS011;49099;28.428;-16.488;2022-12-29T11:38:18;24.98;;;5.30;;
63008;SDS011;49099;28.428;-16.488;2022-12-29T11:40:48;34.63;;;6.32;;
63008;SDS011;49099;28.428;-16.488;2022-12-29T11:43:37;25.80;;;4.45;;
63008;SDS011;49099;28.428;-16.488;2022-12-29T11:46:05;18.65;;;4.03;;
63008;SDS011;49099;28.428;-16.488;2022-12-29T11:48:39;20.10;;;3.15;;
63008;SDS011;49099;28.428;-16.488;2022-12-29T11:51:07;15.88;;;3.33;;
63008;SDS011;49099;28.428;-16.488;2022-12-29T11:53:42;32.45;;;5.63;;
63008;SDS011;49099;28.428;-16.488;2022-12-29T11:56:13;24.08;;;4.50;;
63008;SDS011;49099;28.428;-16.488;2022-12-29T11:58:42;29.65;;;4.75;;
63008;SDS011;49099;28.428;-16.488;2022-12-29T12:06:44;27.33;;;4.22;;
63008;SDS011;49099;28.428;-16.488;2022-12-29T12:09:43;42.28;;;7.03;;
63008;SDS011;49099;28.428;-16.488;2022-12-29T12:12:34;69.22;;;9.73;;
63008;SDS011;49099;28.428;-16.488;2022-12-29T12:15:31;50.88;;;6.65;;
63008;SDS011;49099;28.428;-16.488;2022-12-29T12:18:32;35.53;;;5.93;;
63008;SDS011;49099;28.428;-16.488;2022-12-29T12:21:08;30.38;;;5.22;;
63008;SDS011;49099;28.428;-16.488;2022-12-29T12:31:33;34.20;;;5.55;;
63008;SDS011;49099;28.428;-16.488;2022-12-29T12:34:04;30.73;;;5.05;;
63008;SDS011;49099;28.428;-16.488;2022-12-29T12:36:46;19.77;;;3.95;;
63008;SDS011;49099;28.428;-16.488;2022-12-29T12:47:52;27.83;;;4.82;;
63008;SDS011;49099;28.428;-16.488;2022-12-29T12:56:15;39.50;;;5.55;;
63008;SDS011;49099;28.428;-16.488;2022-12-29T12:58:58;19.38;;;4.05;;
63008;SDS011;49099;28.428;-16.488;2022-12-29T13:16:22;61.40;;;6.75;;
63008;SDS011;49099;28.428;-16.488;2022-12-29T13:19:02;24.00;;;4.35;;
63008;SDS011;49099;28.428;-16.488;2022-12-29T13:24:47;20.35;;;4.07;;
63008;SDS011;49099;28.428;-16.488;2022-12-29T13:30:12;21.45;;;4.50;;
63008;SDS011;49099;28.428;-16.488;2022-12-29T13:35:34;23.60;;;4.70;;
63008;SDS011;49099;28.428;-16.488;2022-12-29T13:40:56;22.90;;;4.35;;
63008;SDS011;49099;28.428;-16.488;2022-12-29T13:43:27;23.52;;;4.22;;
63008;SDS011;49099;28.428;-16.488;2022-12-29T13:46:02;23.23;;;4.65;;
63008;SDS011;49099;28.428;-16.488;2022-12-29T13:48:43;13.43;;;3.90;;
63008;SDS011;49099;28.428;-16.488;2022-12-29T13:51:23;18.83;;;3.90;;
63008;SDS011;49099;28.428;-16.488;2022-12-29T13:54:14;24.48;;;4.80;;
63008;SDS011;49099;28.428;-16.488;2022-12-29T13:56:59;14.68;;;4.15;;
63008;SDS011;49099;28.428;-16.488;2022-12-29T14:02:11;20.30;;;4.15;;
63008;SDS011;49099;28.428;-16.488;2022-12-29T14:04:55;21.40;;;4.38;;
63008;SDS011;49099;28.428;-16.488;2022-12-29T14:07:27;23.63;;;4.95;;
63008;SDS011;49099;28.428;-16.488;2022-12-29T14:09:56;26.83;;;4.97;;
63008;SDS011;49099;28.428;-16.488;2022-12-29T14:17:36;18.75;;;4.32;;
63008;SDS011;49099;28.428;-16.488;2022-12-29T14:20:05;22.90;;;4.70;;
63008;SDS011;49099;28.428;-16.488;2022-12-29T14:47:52;25.88;;;4.45;;
63008;SDS011;49099;28.428;-16.488;2022-12-29T14:52:54;26.85;;;4.72;;
63008;SDS011;49099;28.428;-16.488;2022-12-29T15:00:57;19.98;;;4.60;;
63008;SDS011;49099;28.428;-16.488;2022-12-29T15:03:29;23.92;;;4.65;;
63008;SDS011;49099;28.428;-16.488;2022-12-29T15:06:05;20.88;;;4.22;;
63008;SDS011;49099;28.428;-16.488;2022-12-29T15:08:39;15.85;;;3.75;;
63008;SDS011;49099;28.428;-16.488;2022-12-29T15:11:14;19.63;;;4.45;;
63008;SDS011;49099;28.428;-16.488;2022-12-29T15:13:45;23.95;;;4.65;;
63008;SDS011;49099;28.428;-16.488;2022-12-29T15:18:53;23.00;;;4.38;;
63008;SDS011;49099;28.428;-16.488;2022-12-29T15:21:29;26.67;;;5.20;;
63008;SDS011;49099;28.428;-16.488;2022-12-29T15:23:57;21.25;;;4.53;;
63008;SDS011;49099;28.428;-16.488;2022-12-29T15:29:36;24.77;;;4.70;;
63008;SDS011;49099;28.428;-16.488;2022-12-29T15:32:26;23.45;;;4.28;;
63008;SDS011;49099;28.428;-16.488;2022-12-29T15:34:55;21.30;;;4.28;;
63008;SDS011;49099;28.428;-16.488;2022-12-29T15:37:27;24.00;;;4.78;;
63008;SDS011;49099;28.428;-16.488;2022-12-29T15:40:02;21.65;;;4.43;;
63008;SDS011;49099;28.428;-16.488;2022-12-29T15:45:12;20.58;;;3.83;;
63008;SDS011;49099;28.428;-16.488;2022-12-29T15:47:41;16.02;;;4.25;;
63008;SDS011;49099;28.428;-16.488;2022-12-29T15:50:23;24.52;;;4.30;;
63008;SDS011;49099;28.428;-16.488;2022-12-29T15:52:57;26.58;;;5.20;;
63008;SDS011;49099;28.428;-16.488;2022-12-29T15:55:32;24.75;;;5.20;;
63008;SDS011;49099;28.428;-16.488;2022-12-29T15:58:03;21.67;;;4.75;;
63008;SDS011;49099;28.428;-16.488;2022-12-29T16:00:33;22.50;;;4.90;;
63008;SDS011;49099;28.428;-16.488;2022-12-29T16:03:04;26.08;;;4.32;;
63008;SDS011;49099;28.428;-16.488;2022-12-29T16:05:36;29.25;;;6.63;;
63008;SDS011;49099;28.428;-16.488;2022-12-29T16:10:56;34.22;;;5.28;;
63008;SDS011;49099;28.428;-16.488;2022-12-29T16:16:02;27.48;;;4.60;;
63008;SDS011;49099;28.428;-16.488;2022-12-29T16:18:35;25.75;;;4.88;;
63008;SDS011;49099;28.428;-16.488;2022-12-29T16:21:04;25.40;;;4.53;;
63008;SDS011;49099;28.428;-16.488;2022-12-29T16:23:32;17.73;;;4.00;;
63008;SDS011;49099;28.428;-16.488;2022-12-29T16:26:03;37.17;;;5.78;;
63008;SDS011;49099;28.428;-16.488;2022-12-29T16:28:40;33.42;;;6.13;;
63008;SDS011;49099;28.428;-16.488;2022-12-29T16:31:17;52.45;;;8.75;;
63008;SDS011;49099;28.428;-16.488;2022-12-29T16:33:50;43.25;;;7.43;;
63008;SDS011;49099;28.428;-16.488;2022-12-29T16:38:50;40.50;;;6.50;;
63008;SDS011;49099;28.428;-16.488;2022-12-29T16:41:30;36.72;;;6.38;;
63008;SDS011;49099;28.428;-16.488;2022-12-29T16:44:11;38.08;;;6.85;;
63008;SDS011;49099;28.428;-16.488;2022-12-29T16:47:18;32.83;;;5.88;;
63008;SDS011;49099;28.428;-16.488;2022-12-29T16:49:38;38.15;;;6.53;;
63008;SDS011;49099;28.428;-16.488;2022-12-29T16:52:13;31.65;;;5.20;;
63008;SDS011;49099;28.428;-16.488;2022-12-29T16:54:58;22.38;;;4.78;;
63008;SDS011;49099;28.428;-16.488;2022-12-29T16:57:28;28.00;;;5.00;;
63008;SDS011;49099;28.428;-16.488;2022-12-29T17:00:17;20.08;;;4.88;;
63008;SDS011;49099;28.428;-16.488;2022-12-29T17:02:58;29.88;;;5.45;;
63008;SDS011;49099;28.428;-16.488;2022-12-29T17:05:27;35.42;;;8.73;;
63008;SDS011;49099;28.428;-16.488;2022-12-29T17:07:54;34.85;;;12.77;;
63008;SDS011;49099;28.428;-16.488;2022-12-29T17:10:27;26.10;;;7.30;;
63008;SDS011;49099;28.428;-16.488;2022-12-29T17:13:15;24.45;;;5.70;;
63008;SDS011;49099;28.428;-16.488;2022-12-29T17:15:42;26.30;;;6.03;;
63008;SDS011;49099;28.428;-16.488;2022-12-29T17:18:09;24.60;;;4.32;;
63008;SDS011;49099;28.428;-16.488;2022-12-29T17:20:39;19.00;;;3.80;;
63008;SDS011;49099;28.428;-16.488;2022-12-29T17:23:12;12.52;;;3.10;;
63008;SDS011;49099;28.428;-16.488;2022-12-29T17:25:51;17.55;;;3.30;;
63008;SDS011;49099;28.428;-16.488;2022-12-29T17:28:20;14.13;;;3.15;;
63008;SDS011;49099;28.428;-16.488;2022-12-29T17:30:51;11.95;;;3.05;;
63008;SDS011;49099;28.428;-16.488;2022-12-29T17:33:19;17.63;;;3.35;;
63008;SDS011;49099;28.428;-16.488;2022-12-29T17:35:47;18.77;;;3.58;;
63008;SDS011;49099;28.428;-16.488;2022-12-29T17:40:58;17.10;;;3.42;;
63008;SDS011;49099;28.428;-16.488;2022-12-29T17:43:25;15.50;;;3.30;;
63008;SDS011;49099;28.428;-16.488;2022-12-29T17:46:07;14.57;;;3.17;;
63008;SDS011;49099;28.428;-16.488;2022-12-29T17:48:35;14.13;;;3.70;;
63008;SDS011;49099;28.428;-16.488;2022-12-29T17:51:02;16.02;;;3.40;;